Time;durP1;ratioP1;P1;durP2;ratioP2;P2;SDS_P1;SDS_P2;PMS_P1;PMS_P2;Temp;Humidity;BMP_temperature;BMP_pressure;BME280_temperature;BME280_humidity;BME280_pressure;Samples;Min_cycle;Max_cycle;Signal;HPM_P1;HPM_P2
2023/06/01 00:00:14;;;;;;;2.65;1.67;;;;;;;26.60;35.92;102224.53;5008832;28;96882;-78
2023/06/01 00:02:42;;;;;;;1.70;1.25;;;;;;;26.60;35.85;102227.28;5007207;28;96862;-78
2023/06/01 00:05:09;;;;;;;1.65;1.10;;;;;;;26.60;35.98;102219.00;5005875;28;97375;-78
2023/06/01 00:07:36;;;;;;;1.73;1.50;;;;;;;26.59;35.96;102220.06;5008014;28;97229;-78
2023/06/01 00:10:03;;;;;;;2.20;1.58;;;;;;;26.60;35.86;102223.66;5007415;28;97017;-78
2023/06/01 00:12:29;;;;;;;2.75;1.67;;;;;;;26.61;36.13;102222.63;5008589;28;98184;-78
2023/06/01 00:14:57;;;;;;;1.80;1.55;;;;;;;26.60;35.97;102227.28;5004677;28;96856;-78
2023/06/01 00:17:24;;;;;;;1.70;1.40;;;;;;;26.58;35.99;102229.34;5008489;28;97048;-78
2023/06/01 00:19:52;;;;;;;2.28;1.50;;;;;;;26.59;36.19;102233.84;5004776;28;97129;-78
2023/06/01 00:22:19;;;;;;;1.98;1.50;;;;;;;26.58;36.00;102229.34;5007484;28;97121;-78
2023/06/01 00:24:46;;;;;;;2.20;1.60;;;;;;;26.58;35.97;102221.09;5003131;28;96780;-78
2023/06/01 00:27:13;;;;;;;1.92;1.50;;;;;;;26.57;35.98;102222.13;5006989;28;96887;-78
2023/06/01 00:29:39;;;;;;;1.55;1.38;;;;;;;26.57;36.08;102230.41;5006784;28;97008;-78
2023/06/01 00:32:06;;;;;;;2.63;1.40;;;;;;;26.57;36.17;102218.50;4989818;28;101138;-78
2023/06/01 00:34:33;;;;;;;1.45;1.20;;;;;;;26.57;36.16;102219.38;5003595;28;96781;-78
2023/06/01 00:36:59;;;;;;;1.95;1.42;;;;;;;26.57;36.13;102211.09;5008292;28;96774;-78
2023/06/01 00:39:26;;;;;;;1.73;1.30;;;;;;;26.57;35.98;102222.13;5002641;28;98205;-78
2023/06/01 00:41:53;;;;;;;1.48;1.38;;;;;;;26.57;36.03;102216.63;5003216;28;99484;-78
2023/06/01 00:44:23;;;;;;;1.80;1.40;;;;;;;26.56;36.05;102216.81;5006400;28;98404;-78
2023/06/01 00:46:50;;;;;;;2.20;1.40;;;;;;;26.56;35.98;102223.16;5007546;28;96839;-78
2023/06/01 00:49:17;;;;;;;2.08;1.30;;;;;;;26.56;36.04;102223.16;5007452;28;97417;-78
2023/06/01 00:51:44;;;;;;;2.83;1.77;;;;;;;26.55;35.97;102217.84;5007546;28;97189;-78
2023/06/01 00:54:11;;;;;;;1.77;1.38;;;;;;;26.55;36.11;102220.59;5000518;28;98337;-78
2023/06/01 00:56:38;;;;;;;2.38;1.42;;;;;;;26.55;36.10;102218.69;5005824;28;97041;-78
2023/06/01 00:59:05;;;;;;;1.63;1.10;;;;;;;26.55;36.11;102228.84;5005897;28;97102;-78
2023/06/01 01:01:33;;;;;;;1.77;1.40;;;;;;;26.54;36.06;102225.25;5008050;28;99318;-78
2023/06/01 01:04:00;;;;;;;2.53;1.30;;;;;;;26.53;36.05;102223.53;5007145;28;96627;-78
2023/06/01 01:06:48;;;;;;;1.90;1.58;;;;;;;26.55;36.01;102235.22;5004495;28;96647;-78
2023/06/01 01:09:38;;;;;;;2.05;1.60;;;;;;;26.54;36.15;102229.91;4996266;28;96861;-78
2023/06/01 01:12:36;;;;;;;3.70;1.35;;;;;;;26.52;35.90;102231.97;4994669;28;99000;-78
2023/06/01 01:15:34;;;;;;;2.22;1.50;;;;;;;26.50;35.96;102223.03;5004970;28;99281;-78
2023/06/01 01:18:17;;;;;;;2.20;1.65;;;;;;;26.49;36.02;102229.59;4995468;28;97147;-78
2023/06/01 01:20:47;;;;;;;1.95;1.40;;;;;;;26.48;36.21;102234.22;4983198;28;96905;-78
2023/06/01 01:23:33;;;;;;;1.67;1.35;;;;;;;26.48;36.04;102233.38;5001494;28;100533;-78
2023/06/01 01:26:00;;;;;;;;;;;;;;;26.43;36.21;102238.56;5011014;28;97107;-78
2023/06/01 01:28:41;;;;;;;2.13;1.25;;;;;;;26.43;35.97;102236.66;4996994;28;97066;-78
2023/06/01 01:31:15;;;;;;;1.55;1.35;;;;;;;26.44;36.07;102243.03;5005214;28;97252;-78
2023/06/01 01:33:43;;;;;;;2.40;1.50;;;;;;;26.44;36.10;102238.38;5009247;28;97621;-78
2023/06/01 01:36:10;;;;;;;2.35;1.40;;;;;;;26.44;36.21;102237.53;5009822;28;96746;-78
2023/06/01 01:38:37;;;;;;;1.60;1.33;;;;;;;26.45;36.12;102242.00;5008194;28;97363;-78
2023/06/01 01:41:04;;;;;;;1.70;1.25;;;;;;;26.46;36.20;102240.97;5011025;28;96892;-78
2023/06/01 01:43:31;;;;;;;2.22;1.50;;;;;;;26.45;36.15;102237.34;5010906;28;97599;-78
2023/06/01 01:46:17;;;;;;;2.05;1.60;;;;;;;26.46;36.15;102229.94;5008570;28;97321;-78
2023/06/01 01:49:17;;;;;;;1.77;1.65;;;;;;;26.45;36.08;102239.25;5009835;28;97014;-79
2023/06/01 01:52:20;;;;;;;2.28;1.23;;;;;;;26.43;35.92;102235.81;5009412;28;96994;-78
2023/06/01 01:54:49;;;;;;;1.75;1.40;;;;;;;26.42;36.14;102237.72;4995941;28;98950;-78
2023/06/01 01:57:17;;;;;;;1.85;1.40;;;;;;;26.41;36.10;102244.25;5007711;28;97901;-78
2023/06/01 01:59:46;;;;;;;2.08;1.48;;;;;;;26.42;36.20;102237.72;4992998;28;96841;-78
2023/06/01 02:02:12;;;;;;;1.85;1.52;;;;;;;26.42;35.99;102236.84;4996455;28;97073;-78
2023/06/01 02:04:41;;;;;;;1.88;1.38;;;;;;;26.42;36.10;102243.22;5010680;28;96979;-78
2023/06/01 02:07:09;;;;;;;1.90;1.50;;;;;;;26.41;36.14;102238.75;5009345;28;100276;-78
2023/06/01 02:09:36;;;;;;;2.50;1.40;;;;;;;26.42;36.17;102243.22;5007384;28;96780;-78
2023/06/01 02:12:04;;;;;;;1.35;1.20;;;;;;;26.42;35.88;102242.34;5009081;28;97190;-78
2023/06/01 02:14:32;;;;;;;2.85;1.30;;;;;;;26.42;36.23;102242.34;5007097;28;100261;-78
2023/06/01 02:17:00;;;;;;;1.75;1.40;;;;;;;26.41;36.04;102236.00;5008913;28;99495;-78
2023/06/01 02:19:27;;;;;;;1.55;1.45;;;;;;;26.41;35.93;102241.50;5010158;28;97235;-78
2023/06/01 02:21:55;;;;;;;1.45;1.30;;;;;;;26.41;35.94;102237.88;4999229;28;96615;-79
2023/06/01 02:24:21;;;;;;;1.40;1.30;;;;;;;26.41;36.16;102240.66;5009576;28;97671;-78
2023/06/01 02:26:51;;;;;;;6.22;1.98;;;;;;;26.41;36.18;102235.13;5008209;28;99544;-78
2023/06/01 02:29:21;;;;;;;1.88;1.50;;;;;;;26.41;36.04;102232.38;5009838;28;96827;-78
2023/06/01 02:31:50;;;;;;;1.92;1.35;;;;;;;26.40;36.06;102234.28;4990792;28;96800;-78
2023/06/01 02:34:17;;;;;;;1.75;1.38;;;;;;;26.40;35.57;102231.53;5008801;28;98039;-78
2023/06/01 02:36:45;;;;;;;1.58;1.48;;;;;;;26.39;35.89;102221.53;5007537;28;99106;-78
2023/06/01 02:39:11;;;;;;;2.25;1.52;;;;;;;26.39;36.33;102228.94;5006174;28;97797;-78
2023/06/01 02:41:39;;;;;;;2.05;1.40;;;;;;;26.39;36.18;102227.06;4983051;28;96838;-78
2023/06/01 02:44:06;;;;;;;2.80;1.33;;;;;;;26.39;36.06;102227.06;5008496;28;96937;-78
2023/06/01 02:46:34;;;;;;;1.92;1.63;;;;;;;26.39;35.84;102231.69;5008457;28;99082;-78
2023/06/01 02:49:00;;;;;;;1.80;1.50;;;;;;;26.39;36.07;102227.06;5009279;28;97012;-79
2023/06/01 02:51:27;;;;;;;1.70;1.27;;;;;;;26.38;36.11;102236.34;5009797;28;97086;-78
2023/06/01 02:54:04;;;;;;;1.83;1.73;;;;;;;26.38;36.22;102235.50;4992035;28;96778;-78
2023/06/01 02:56:31;;;;;;;1.83;1.30;;;;;;;26.37;36.13;102229.13;4997529;28;98094;-78
2023/06/01 02:59:08;;;;;;;1.65;1.30;;;;;;;26.37;36.29;102236.53;4999615;28;97047;-77
2023/06/01 03:01:42;;;;;;;;;;;;;;;26.31;35.96;102232.56;4996043;28;96998;-78
2023/06/01 03:04:10;;;;;;;2.33;1.40;;;;;;;26.31;36.19;102228.94;4990166;28;98704;-78
2023/06/01 03:06:37;;;;;;;1.50;1.20;;;;;;;26.32;36.12;102226.03;4991636;28;99430;-78
2023/06/01 03:09:12;;;;;;;2.33;1.50;;;;;;;26.34;36.12;102223.13;5008141;28;96976;-79
2023/06/01 03:12:03;;;;;;;1.55;1.40;;;;;;;26.33;36.30;102225.00;4975053;28;97231;-78
2023/06/01 03:14:31;;;;;;;1.40;1.30;;;;;;;26.34;36.08;102228.63;5009192;28;96984;-78
2023/06/01 03:16:58;;;;;;;1.83;1.20;;;;;;;26.34;36.07;102225.88;5000976;28;99114;-78
2023/06/01 03:19:24;;;;;;;2.10;1.50;;;;;;;26.34;35.99;102225.88;5008043;28;96837;-78
2023/06/01 03:21:53;;;;;;;2.00;1.40;;;;;;;26.34;36.26;102228.63;5009215;28;97040;-78
2023/06/01 03:24:27;;;;;;;1.63;1.50;;;;;;;26.32;36.16;102228.78;4981568;28;99404;-78
2023/06/01 03:26:56;;;;;;;1.63;1.52;;;;;;;26.33;35.96;102218.66;5006604;28;98894;-78
2023/06/01 03:29:24;;;;;;;2.00;1.35;;;;;;;26.33;36.17;102222.25;4981719;28;97371;-78
2023/06/01 03:31:51;;;;;;;2.60;1.60;;;;;;;26.34;36.11;102220.38;5006827;28;97053;-78
2023/06/01 03:34:22;;;;;;;1.88;1.40;;;;;;;26.33;35.90;102224.16;5002090;28;99735;-78
2023/06/01 03:36:48;;;;;;;1.30;1.20;;;;;;;26.33;36.26;102218.66;5008055;28;96809;-78
2023/06/01 03:39:16;;;;;;;1.75;1.35;;;;;;;26.33;36.02;102222.25;5008112;28;96910;-79
2023/06/01 03:41:44;;;;;;;1.58;1.38;;;;;;;26.34;35.96;102220.38;5000901;28;97319;-79
2023/06/01 03:44:11;;;;;;;1.38;1.27;;;;;;;26.34;36.17;102221.22;5006727;28;99247;-79
2023/06/01 03:46:40;;;;;;;1.48;1.30;;;;;;;26.34;35.96;102225.88;5004182;28;99234;-79
2023/06/01 03:49:07;;;;;;;1.88;1.30;;;;;;;26.32;36.09;102215.00;4990849;28;97180;-79
2023/06/01 03:51:35;;;;;;;2.53;1.38;;;;;;;26.31;36.02;102223.44;5000344;28;97098;-79
2023/06/01 03:54:02;;;;;;;2.42;1.50;;;;;;;26.31;36.10;102224.31;5006843;28;100081;-79
2023/06/01 03:56:29;;;;;;;1.83;1.40;;;;;;;26.31;36.08;102227.06;4993156;28;100850;-79
2023/06/01 03:59:00;;;;;;;1.90;1.40;;;;;;;26.31;36.01;102235.31;5006133;28;96975;-79
2023/06/01 04:01:29;;;;;;;1.40;1.17;;;;;;;26.32;36.06;102241.69;5007571;28;96770;-79
2023/06/01 04:03:56;;;;;;;1.40;1.30;;;;;;;26.31;35.96;102232.56;5007444;28;96815;-79
2023/06/01 04:06:24;;;;;;;1.23;1.00;;;;;;;26.31;36.20;102239.97;5007231;28;98696;-79
2023/06/01 04:08:55;;;;;;;1.92;1.38;;;;;;;26.31;35.91;102243.56;4979103;28;97214;-79
2023/06/01 04:11:22;;;;;;;1.58;1.27;;;;;;;26.29;35.98;102232.75;4995446;28;97125;-79
2023/06/01 04:13:50;;;;;;;1.52;1.20;;;;;;;26.29;35.70;102235.50;4994719;28;99498;-79
2023/06/01 04:16:18;;;;;;;1.40;1.23;;;;;;;26.31;36.28;102234.47;5022374;28;99472;-79
2023/06/01 04:18:45;;;;;;;2.38;1.80;;;;;;;26.31;35.96;102238.06;5008577;28;97024;-79
2023/06/01 04:21:25;;;;;;;1.42;1.25;;;;;;;26.28;35.67;102233.78;5007595;28;96831;-79
2023/06/01 04:23:51;;;;;;;1.73;1.35;;;;;;;26.29;35.96;102229.13;5002304;28;100572;-79
2023/06/01 04:26:20;;;;;;;2.85;1.35;;;;;;;26.29;35.97;102229.13;5007005;28;100558;-79
2023/06/01 04:28:48;;;;;;;2.70;1.38;;;;;;;26.30;35.93;102239.09;5008630;28;96848;-79
2023/06/01 04:31:19;;;;;;;1.63;1.30;;;;;;;26.28;35.82;102236.53;5006938;28;97090;-79
2023/06/01 04:33:52;;;;;;;2.25;1.20;;;;;;;26.28;36.43;102236.53;5004182;28;100226;-79
2023/06/01 04:36:23;;;;;;;2.45;1.20;;;;;;;26.28;35.87;102239.28;4998622;28;98317;-79
2023/06/01 04:38:54;;;;;;;2.15;1.50;;;;;;;26.28;35.97;102246.69;5002485;28;96980;-79
2023/06/01 04:41:21;;;;;;;1.85;1.30;;;;;;;26.28;35.84;102247.56;5007114;28;96972;-79
2023/06/01 04:43:52;;;;;;;1.38;1.27;;;;;;;26.28;35.86;102241.19;5000781;28;101148;-79
2023/06/01 04:46:23;;;;;;;2.17;1.45;;;;;;;26.27;35.92;102240.31;4987802;28;100161;-79
2023/06/01 04:48:53;;;;;;;2.20;1.30;;;;;;;26.28;35.92;102246.69;5003499;28;96801;-79
2023/06/01 04:51:20;;;;;;;1.50;1.38;;;;;;;26.27;35.80;102243.06;4989286;28;97320;-79
2023/06/01 04:53:49;;;;;;;1.33;1.20;;;;;;;26.27;35.81;102240.31;5006060;28;99341;-79
2023/06/01 04:56:24;;;;;;;1.77;1.30;;;;;;;26.27;35.90;102244.97;5004467;28;99084;-79
2023/06/01 04:58:51;;;;;;;2.15;1.42;;;;;;;26.28;35.79;102246.69;5006146;28;96934;-78
2023/06/01 05:01:24;;;;;;;1.30;1.10;;;;;;;26.27;35.87;102245.84;4990728;28;97298;-79
2023/06/01 05:03:54;;;;;;;2.13;1.30;;;;;;;26.26;35.83;102244.13;4977812;28;100352;-79
2023/06/01 05:06:22;;;;;;;1.90;1.48;;;;;;;26.27;35.85;102251.34;5007942;28;97484;-79
2023/06/01 05:08:48;;;;;;;1.25;1.15;;;;;;;26.26;36.00;102248.75;5006235;28;97175;-79
2023/06/01 05:11:16;;;;;;;1.67;1.40;;;;;;;26.26;35.88;102249.63;5005589;28;97078;-78
2023/06/01 05:13:44;;;;;;;1.38;1.27;;;;;;;26.26;35.98;102246.00;5001287;28;96779;-79
2023/06/01 05:16:11;;;;;;;1.40;1.25;;;;;;;26.25;35.95;102242.41;5002174;28;99441;-79
2023/06/01 05:18:38;;;;;;;1.48;1.38;;;;;;;26.25;35.75;102239.66;4990328;28;96941;-79
2023/06/01 05:21:05;;;;;;;1.45;1.10;;;;;;;26.25;35.80;102247.91;5006496;28;96891;-79
2023/06/01 05:23:32;;;;;;;2.50;1.40;;;;;;;26.25;35.83;102247.03;5007820;28;97633;-79
2023/06/01 05:26:01;;;;;;;2.05;1.60;;;;;;;26.26;35.79;102248.75;4994452;28;99197;-79
2023/06/01 05:28:33;;;;;;;2.00;1.58;;;;;;;26.26;35.76;102243.25;4988597;28;96971;-79
2023/06/01 05:31:02;;;;;;;1.52;1.30;;;;;;;26.25;35.87;102236.88;5007250;28;96955;-79
2023/06/01 05:33:33;;;;;;;2.22;1.80;;;;;;;26.25;35.95;102234.13;5001903;28;99058;-79
2023/06/01 05:36:00;;;;;;;1.60;1.48;;;;;;;26.26;35.79;102238.59;5008102;28;97264;-79
2023/06/01 05:38:27;;;;;;;1.92;1.55;;;;;;;26.27;35.52;102233.97;5005334;28;98309;-79
2023/06/01 05:40:53;;;;;;;2.38;1.60;;;;;;;26.25;35.69;102228.63;4995024;28;97279;-79
2023/06/01 05:43:20;;;;;;;2.78;1.42;;;;;;;26.25;36.06;102236.88;5005792;28;99012;-79
2023/06/01 05:45:48;;;;;;;1.67;1.13;;;;;;;26.26;36.32;102232.25;5001447;28;99621;-79
2023/06/01 05:48:15;;;;;;;1.90;1.55;;;;;;;26.26;35.70;102243.25;5004015;28;97462;-79
2023/06/01 05:50:46;;;;;;;2.60;1.58;;;;;;;26.25;35.82;102247.91;5006481;28;96663;-79
2023/06/01 05:53:13;;;;;;;1.73;1.38;;;;;;;26.25;35.81;102242.41;5004900;28;99542;-79
2023/06/01 05:55:40;;;;;;;2.38;1.48;;;;;;;26.24;35.94;102254.44;4990962;28;100731;-79
2023/06/01 05:58:06;;;;;;;1.75;1.50;;;;;;;26.25;35.63;102245.16;5006959;28;96711;-79
2023/06/01 06:00:35;;;;;;;1.52;1.42;;;;;;;26.25;35.86;102244.28;5008522;28;96635;-79
2023/06/01 06:03:04;;;;;;;1.95;1.70;;;;;;;26.25;35.86;102252.56;5009403;28;99017;-79
2023/06/01 06:05:30;;;;;;;1.75;1.50;;;;;;;26.24;35.63;102254.44;5008945;28;99132;-79
2023/06/01 06:07:57;;;;;;;1.88;1.40;;;;;;;26.25;35.81;102247.03;5010836;28;96665;-79
2023/06/01 06:10:24;;;;;;;1.90;1.30;;;;;;;26.25;35.63;102247.03;5010568;28;97090;-79
2023/06/01 06:12:50;;;;;;;2.20;1.88;;;;;;;26.25;35.81;102249.81;5011730;28;97504;-79
2023/06/01 06:15:17;;;;;;;1.98;1.52;;;;;;;26.25;35.89;102253.41;5010580;28;100321;-79
2023/06/01 06:17:44;;;;;;;1.52;1.42;;;;;;;26.25;35.89;102253.41;5011935;28;96827;-79
2023/06/01 06:20:11;;;;;;;1.83;1.48;;;;;;;26.26;35.70;102257.03;5012683;28;96602;-79
2023/06/01 06:22:38;;;;;;;2.00;1.35;;;;;;;26.24;35.82;102254.44;5011261;28;99317;-79
2023/06/01 06:25:05;;;;;;;3.10;1.48;;;;;;;26.26;35.80;102248.75;5010828;28;97942;-79
2023/06/01 06:27:32;;;;;;;1.50;1.40;;;;;;;26.25;35.85;102247.03;4999195;28;96883;-79
2023/06/01 06:29:58;;;;;;;1.70;1.60;;;;;;;26.25;35.71;102247.91;5010542;28;97178;-79
2023/06/01 06:32:25;;;;;;;1.55;1.40;;;;;;;26.26;35.80;102252.38;5012303;28;98006;-79
2023/06/01 06:34:52;;;;;;;1.92;1.58;;;;;;;26.25;35.47;102247.91;5011296;28;97496;-79
2023/06/01 06:37:18;;;;;;;1.75;1.65;;;;;;;26.26;35.75;102237.75;5011966;28;96710;-78
2023/06/01 06:39:45;;;;;;;2.45;1.75;;;;;;;26.26;35.64;102249.63;5012440;28;98112;-79
2023/06/01 06:42:11;;;;;;;2.28;1.65;;;;;;;26.26;35.68;102248.75;5010187;28;97864;-79
2023/06/01 06:44:38;;;;;;;1.83;1.50;;;;;;;26.26;35.79;102252.38;5011654;28;96939;-79
2023/06/01 06:47:05;;;;;;;2.38;1.58;;;;;;;26.26;35.63;102254.28;5010755;28;96815;-79
2023/06/01 06:49:32;;;;;;;2.67;1.67;;;;;;;26.25;35.60;102253.41;5010189;28;96712;-79
2023/06/01 06:51:58;;;;;;;1.60;1.40;;;;;;;26.26;35.72;102257.03;5009382;28;97032;-79
2023/06/01 06:54:25;;;;;;;2.40;1.52;;;;;;;26.25;35.65;102252.56;5007447;28;97354;-79
2023/06/01 06:56:52;;;;;;;2.33;1.70;;;;;;;26.26;35.48;102251.53;4995993;28;97314;-79
2023/06/01 06:59:19;;;;;;;2.08;1.50;;;;;;;26.25;35.57;102250.66;5010136;28;96989;-79
2023/06/01 07:01:46;;;;;;;1.65;1.40;;;;;;;26.26;35.51;102259.78;5009073;28;97173;-79
2023/06/01 07:04:13;;;;;;;3.38;1.60;;;;;;;26.25;35.50;102255.31;5010116;28;97141;-79
2023/06/01 07:06:39;;;;;;;1.50;1.40;;;;;;;26.26;35.74;102257.88;5008070;28;97127;-79
2023/06/01 07:09:07;;;;;;;2.38;1.60;;;;;;;26.26;35.58;102257.03;5009712;28;96992;-80
2023/06/01 07:11:34;;;;;;;2.65;1.73;;;;;;;26.26;35.95;102254.28;5010373;28;97610;-79
2023/06/01 07:14:00;;;;;;;2.55;1.88;;;;;;;26.27;35.87;102259.59;5011120;28;97289;-79
2023/06/01 07:16:29;;;;;;;3.55;1.65;;;;;;;26.27;35.68;102256.00;5009703;28;97360;-79
2023/06/01 07:18:56;;;;;;;2.17;1.80;;;;;;;26.27;35.62;102256.00;4981657;28;97015;-79
2023/06/01 07:21:23;;;;;;;2.38;1.63;;;;;;;26.27;35.46;102253.22;5009116;28;96812;-79
2023/06/01 07:23:50;;;;;;;2.72;1.77;;;;;;;26.27;35.70;102256.00;5011167;28;96740;-79
2023/06/01 07:26:16;;;;;;;2.00;1.50;;;;;;;26.27;35.63;102251.34;5011313;28;96807;-79
2023/06/01 07:28:43;;;;;;;1.90;1.58;;;;;;;26.28;35.66;102257.72;5011219;28;96772;-80
2023/06/01 07:31:09;;;;;;;2.95;1.80;;;;;;;26.28;35.62;102250.31;5018793;28;97813;-80
2023/06/01 07:33:37;;;;;;;2.97;1.75;;;;;;;26.27;35.67;102251.34;5019605;28;96948;-79
2023/06/01 07:36:06;;;;;;;2.47;1.80;;;;;;;26.28;35.63;102257.72;5021536;28;97031;-80
2023/06/01 07:38:33;;;;;;;2.45;1.50;;;;;;;26.28;35.70;102252.19;5013492;28;96781;-80
2023/06/01 07:41:00;;;;;;;2.55;2.00;;;;;;;26.28;35.76;102258.56;5019971;28;100400;-80
2023/06/01 07:43:27;;;;;;;2.45;1.95;;;;;;;26.28;35.88;102252.19;5021137;28;99798;-80
2023/06/01 07:45:54;;;;;;;2.70;1.77;;;;;;;26.27;35.62;102250.47;5020336;28;96679;-80
2023/06/01 07:48:21;;;;;;;2.60;1.95;;;;;;;26.27;35.58;102258.75;5022113;28;97064;-80
2023/06/01 07:50:47;;;;;;;2.47;1.67;;;;;;;26.27;35.85;102256.00;5019570;28;100390;-79
2023/06/01 07:53:14;;;;;;;3.15;2.28;;;;;;;26.28;35.69;102257.72;5020290;28;97225;-80
2023/06/01 07:55:41;;;;;;;3.45;2.17;;;;;;;26.28;35.94;102257.72;5020835;28;96708;-79
2023/06/01 07:58:08;;;;;;;3.35;2.17;;;;;;;26.28;35.92;102249.44;5021135;28;97169;-80
2023/06/01 08:00:34;;;;;;;2.72;2.00;;;;;;;26.27;35.88;102247.72;5020946;28;98182;-80
2023/06/01 08:03:06;;;;;;;2.63;1.80;;;;;;;26.27;35.57;102251.34;4992999;28;96739;-80
2023/06/01 08:05:36;;;;;;;4.30;1.95;;;;;;;26.27;35.92;102245.84;5022724;28;96699;-80
2023/06/01 08:08:05;;;;;;;3.50;2.17;;;;;;;26.27;35.73;102247.72;5003210;28;96979;-80
2023/06/01 08:10:32;;;;;;;3.28;2.13;;;;;;;26.26;35.71;102252.38;5012800;28;96924;-79
2023/06/01 08:12:58;;;;;;;3.80;1.98;;;;;;;26.27;35.82;102253.22;5017444;28;96801;-80
2023/06/01 08:15:28;;;;;;;3.40;2.10;;;;;;;26.27;35.88;102251.34;5019497;28;96922;-79
2023/06/01 08:17:56;;;;;;;3.00;1.88;;;;;;;26.28;35.66;102247.56;5019700;28;96663;-80
2023/06/01 08:20:25;;;;;;;4.15;2.00;;;;;;;26.28;36.02;102246.69;5019494;28;99272;-79
2023/06/01 08:22:52;;;;;;;2.45;1.90;;;;;;;26.27;35.81;102245.84;5001370;28;99552;-80
2023/06/01 08:25:19;;;;;;;3.13;2.17;;;;;;;26.29;35.69;102245.66;5018688;28;96996;-79
2023/06/01 08:27:46;;;;;;;3.60;2.08;;;;;;;26.28;35.70;102238.44;5019517;28;97440;-80
2023/06/01 08:30:12;;;;;;;4.13;2.42;;;;;;;26.28;35.87;102241.19;5018022;28;101079;-80
2023/06/01 08:32:39;;;;;;;3.08;1.90;;;;;;;26.29;35.81;102242.91;5016721;28;100252;-80
2023/06/01 08:35:07;;;;;;;3.40;2.10;;;;;;;26.30;35.96;102239.09;5018209;28;96907;-79
2023/06/01 08:37:35;;;;;;;2.53;2.03;;;;;;;26.28;35.90;102228.28;5016602;28;96987;-79
2023/06/01 08:40:04;;;;;;;2.92;2.35;;;;;;;26.31;35.81;102239.97;5017139;28;98270;-80
2023/06/01 08:42:45;;;;;;;2.72;2.20;;;;;;;26.30;35.92;102233.59;5018315;28;96635;-80
2023/06/01 08:45:13;;;;;;;4.15;2.20;;;;;;;26.29;35.97;102237.38;5019783;28;96818;-80
2023/06/01 08:47:41;;;;;;;4.35;2.17;;;;;;;26.30;36.01;102233.59;5019952;28;96558;-80
2023/06/01 08:50:10;;;;;;;4.38;2.17;;;;;;;26.30;35.83;102225.34;5018835;28;98747;-80
2023/06/01 08:52:38;;;;;;;2.20;2.00;;;;;;;26.31;35.91;102228.94;5018258;28;97361;-80
2023/06/01 08:55:05;;;;;;;3.15;2.15;;;;;;;26.30;36.05;102222.59;5017056;28;97724;-80
2023/06/01 08:57:32;;;;;;;3.90;2.40;;;;;;;26.31;36.08;102228.94;5017476;28;96752;-80
2023/06/01 08:59:59;;;;;;;3.30;1.95;;;;;;;26.31;36.09;102221.53;5017481;28;98117;-80
2023/06/01 09:02:27;;;;;;;2.30;1.83;;;;;;;26.31;36.09;102218.78;5017027;28;99440;-80
2023/06/01 09:04:54;;;;;;;2.90;2.10;;;;;;;26.31;35.95;102207.78;5016801;28;96809;-80
2023/06/01 09:07:22;;;;;;;3.50;2.20;;;;;;;26.31;35.65;102207.78;5017730;28;96893;-80
2023/06/01 09:09:48;;;;;;;3.08;2.08;;;;;;;26.32;35.84;102214.13;5013553;28;97355;-80
2023/06/01 09:12:28;;;;;;;2.20;1.90;;;;;;;26.32;36.15;102217.75;5008500;28;99574;-80
2023/06/01 09:15:08;;;;;;;3.25;2.53;;;;;;;26.32;35.94;102206.72;5004094;28;97244;-80
2023/06/01 09:17:36;;;;;;;3.63;2.20;;;;;;;26.31;36.07;102210.53;5004765;28;97209;-80
2023/06/01 09:20:04;;;;;;;3.38;2.20;;;;;;;26.32;35.84;102203.13;5008487;28;97739;-80
2023/06/01 09:22:46;;;;;;;2.45;2.00;;;;;;;26.32;36.00;102200.38;5010204;28;98397;-80
2023/06/01 09:25:14;;;;;;;4.60;2.55;;;;;;;26.32;36.07;102194.84;5010240;28;96997;-80
2023/06/01 09:27:49;;;;;;;3.35;2.40;;;;;;;26.32;36.08;102203.97;5010419;28;97305;-79
2023/06/01 09:30:18;;;;;;;3.63;2.20;;;;;;;26.31;35.89;102196.75;5009975;28;96965;-80
2023/06/01 09:32:53;;;;;;;3.40;2.50;;;;;;;26.32;36.00;102192.97;5010188;28;98306;-80
2023/06/01 09:35:36;;;;;;;;;;;;;;;26.27;35.99;102190.75;5008771;28;97418;-80
2023/06/01 09:38:05;;;;;;;3.13;2.20;;;;;;;26.27;35.91;102187.13;5003521;28;97282;-80
2023/06/01 09:40:34;;;;;;;2.47;2.00;;;;;;;26.29;36.05;102188.69;5011949;28;97249;-80
2023/06/01 09:43:02;;;;;;;5.32;2.13;;;;;;;26.29;35.78;102182.31;5014317;28;96684;-80
2023/06/01 09:45:31;;;;;;;3.33;2.35;;;;;;;26.30;35.96;102189.53;5013120;28;96740;-80
2023/06/01 09:48:19;;;;;;;4.22;2.38;;;;;;;26.32;35.85;102190.22;5014556;28;96918;-80
2023/06/01 09:50:46;;;;;;;4.28;2.40;;;;;;;26.30;36.19;102181.28;5013643;28;96966;-80
2023/06/01 09:53:13;;;;;;;3.13;2.35;;;;;;;26.30;36.32;102184.03;5011796;28;96754;-80
2023/06/01 09:56:01;;;;;;;3.33;2.08;;;;;;;26.32;35.83;102181.94;5013040;28;97069;-80
2023/06/01 09:58:28;;;;;;;2.80;2.10;;;;;;;26.31;36.20;102179.38;5015787;28;96886;-80
2023/06/01 10:00:59;;;;;;;2.70;2.30;;;;;;;26.31;35.95;102174.72;5016506;28;97205;-80
2023/06/01 10:03:27;;;;;;;2.60;1.90;;;;;;;26.31;36.02;102177.47;5014521;28;96950;-80
2023/06/01 10:05:54;;;;;;;2.85;2.10;;;;;;;26.31;35.80;102176.63;5013893;28;96648;-80
2023/06/01 10:08:21;;;;;;;3.40;2.30;;;;;;;26.31;35.80;102177.47;5013965;28;96884;-80
2023/06/01 10:10:48;;;;;;;3.50;2.30;;;;;;;26.32;35.85;102170.94;5012685;28;97108;-79
2023/06/01 10:13:15;;;;;;;3.08;2.05;;;;;;;26.32;36.03;102175.59;5011289;28;96768;-80
2023/06/01 10:15:42;;;;;;;2.97;2.38;;;;;;;26.33;35.83;102180.94;5014416;28;97220;-80
2023/06/01 10:18:08;;;;;;;3.85;2.55;;;;;;;26.32;35.96;102178.34;5015383;28;98841;-79
2023/06/01 10:20:37;;;;;;;3.55;2.28;;;;;;;26.33;35.79;102174.56;5015219;28;97202;-79
2023/06/01 10:23:04;;;;;;;2.80;2.42;;;;;;;26.34;35.80;102166.13;5014304;28;96921;-80
2023/06/01 10:25:46;;;;;;;3.22;2.28;;;;;;;26.34;36.07;102157.00;5013697;28;97129;-80
2023/06/01 10:28:14;;;;;;;3.75;2.55;;;;;;;26.32;35.73;102162.66;5004351;28;96797;-80
2023/06/01 10:30:41;;;;;;;3.00;2.30;;;;;;;26.32;35.89;102161.81;5014254;28;97624;-80
2023/06/01 10:33:08;;;;;;;3.67;2.58;;;;;;;26.33;36.01;102161.66;5014061;28;96935;-80
2023/06/01 10:35:40;;;;;;;3.83;2.50;;;;;;;26.34;35.90;102155.13;5016570;28;96978;-80
2023/06/01 10:38:09;;;;;;;2.65;2.40;;;;;;;26.33;35.79;102149.78;5013551;28;96722;-79
2023/06/01 10:40:37;;;;;;;2.83;2.17;;;;;;;26.32;36.02;102162.66;5010665;28;97942;-80
2023/06/01 10:43:04;;;;;;;4.07;2.67;;;;;;;26.33;35.84;102155.28;5012631;28;96964;-79
2023/06/01 10:45:33;;;;;;;3.20;2.35;;;;;;;26.34;35.73;102157.88;5011963;28;97037;-79
2023/06/01 10:48:11;;;;;;;3.05;2.20;;;;;;;26.35;35.94;102161.47;5013831;28;96776;-79
2023/06/01 10:50:42;;;;;;;3.30;2.17;;;;;;;26.35;35.82;102164.22;5015719;28;98299;-79
2023/06/01 10:53:28;;;;;;;3.45;2.50;;;;;;;26.34;35.99;102149.59;5013776;28;97385;-80
2023/06/01 10:56:17;;;;;;;2.53;2.05;;;;;;;26.34;35.96;102151.50;5003452;28;97624;-79
2023/06/01 10:58:43;;;;;;;5.18;2.30;;;;;;;26.31;35.85;102151.84;5013669;28;96689;-80
2023/06/01 11:01:18;;;;;;;3.40;2.55;;;;;;;26.34;35.76;102146.00;5009907;28;97756;-79
2023/06/01 11:03:46;;;;;;;3.15;2.40;;;;;;;26.32;36.06;102148.91;5005683;28;97137;-79
2023/06/01 11:06:31;;;;;;;3.47;2.45;;;;;;;26.34;35.94;102151.50;5012953;28;97117;-79
2023/06/01 11:09:00;;;;;;;3.47;2.35;;;;;;;26.33;36.12;102142.38;5013115;28;96851;-79
2023/06/01 11:11:50;;;;;;;3.72;2.80;;;;;;;26.35;35.92;102144.94;5013201;28;97121;-80
2023/06/01 11:14:23;;;;;;;2.80;2.38;;;;;;;26.32;35.91;102137.03;5016420;28;97704;-80
2023/06/01 11:16:52;;;;;;;3.80;2.65;;;;;;;26.32;36.01;102134.25;5014972;28;97230;-80
2023/06/01 11:19:21;;;;;;;4.00;2.65;;;;;;;26.33;35.74;102130.50;5016152;28;96814;-80
2023/06/01 11:21:48;;;;;;;3.15;2.55;;;;;;;26.34;36.07;102134.97;5016849;28;97076;-80
2023/06/01 11:24:17;;;;;;;4.25;2.40;;;;;;;26.34;36.08;102137.72;5016454;28;96642;-80
2023/06/01 11:26:48;;;;;;;2.58;2.00;;;;;;;26.34;36.06;102127.56;5016722;28;96892;-80
2023/06/01 11:29:16;;;;;;;4.00;2.53;;;;;;;26.34;35.83;102127.56;4988668;28;96618;-80
2023/06/01 11:31:49;;;;;;;3.40;2.35;;;;;;;26.35;36.00;102123.78;5016062;28;97237;-80
2023/06/01 11:34:20;;;;;;;3.50;2.63;;;;;;;26.34;35.91;102121.19;5011907;28;96831;-80